createdAt,value
2022-11-07T00:00:07.753Z,78.19
2022-11-07T00:01:07.735Z,78.19
2022-11-07T00:02:08.056Z,77.58
2022-11-07T00:03:07.839Z,77.58
2022-11-07T00:04:07.712Z,77.26
2022-11-07T00:05:07.703Z,77.58
2022-11-07T00:06:07.689Z,77.64
2022-11-07T00:07:07.767Z,77.88
2022-11-07T00:08:07.672Z,77.95
2022-11-07T00:09:07.664Z,77.13
2022-11-07T00:10:14.699Z,77.74
2022-11-07T00:11:07.659Z,77.68
2022-11-07T00:12:07.690Z,78.19
2022-11-07T00:13:07.644Z,77.26
2022-11-07T00:14:07.633Z,78.25
2022-11-07T00:15:07.624Z,77.88
2022-11-07T00:16:07.622Z,77.78
2022-11-07T00:17:08.700Z,77.17
2022-11-07T00:18:07.604Z,77.95
2022-11-07T00:19:07.596Z,77.74
2022-11-07T00:20:07.599Z,77.84
2022-11-07T00:21:07.587Z,77.95
2022-11-07T00:22:07.607Z,77.74
2022-11-07T00:23:07.784Z,78.25
2022-11-07T00:24:07.565Z,77.74
2022-11-07T00:25:07.654Z,77.98
2022-11-07T00:26:07.544Z,77.74
2022-11-07T00:27:07.612Z,78.09
2022-11-07T00:28:07.566Z,79.49
2022-11-07T00:29:07.537Z,78.67
2022-11-07T00:30:07.520Z,79.18
2022-11-07T00:31:07.522Z,78.70
2022-11-07T00:32:07.506Z,79.42
2022-11-07T00:33:08.348Z,79.28
2022-11-07T00:34:07.505Z,79.32
2022-11-07T00:35:07.503Z,78.46
2022-11-07T00:36:07.472Z,79.52
2022-11-07T00:37:07.471Z,79.32
2022-11-07T00:38:07.455Z,79.08
2022-11-07T00:39:07.447Z,79.18
2022-11-07T00:40:07.452Z,79.69
2022-11-07T00:41:07.441Z,79.49
2022-11-07T00:42:07.438Z,79.73
2022-11-07T00:43:07.436Z,79.49
2022-11-07T00:44:07.438Z,79.11
2022-11-07T00:45:07.418Z,79.49
2022-11-07T00:46:07.666Z,78.91
2022-11-07T00:47:07.746Z,78.97
2022-11-07T00:48:07.397Z,78.87
2022-11-07T00:49:07.389Z,79.52
2022-11-07T00:50:07.382Z,79.49
2022-11-07T00:51:07.372Z,78.87
2022-11-07T00:52:07.503Z,79.22
2022-11-07T00:53:07.361Z,79.52
2022-11-07T00:54:07.343Z,79.69
2022-11-07T00:55:07.333Z,79.80
2022-11-07T00:56:07.342Z,79.69
2022-11-07T00:57:07.331Z,79.32
2022-11-07T00:58:12.551Z,79.59
2022-11-07T00:59:08.310Z,79.80
2022-11-07T01:00:07.320Z,79.69
2022-11-07T01:01:07.299Z,80.00
2022-11-07T01:02:07.413Z,79.80
2022-11-07T01:03:07.739Z,79.69
2022-11-07T01:04:07.269Z,79.69
2022-11-07T01:05:07.269Z,79.80
2022-11-07T01:06:07.257Z,79.69
2022-11-07T01:07:08.445Z,79.80
2022-11-07T01:08:07.251Z,79.80
2022-11-07T01:09:08.182Z,79.80
2022-11-07T01:10:07.238Z,79.69
2022-11-07T01:11:07.226Z,79.69
2022-11-07T01:12:07.210Z,79.80
2022-11-07T01:13:07.725Z,79.69
2022-11-07T01:14:07.212Z,80.00
2022-11-07T01:15:07.309Z,79.80
2022-11-07T01:16:07.213Z,79.90
2022-11-07T01:17:07.172Z,79.38
2022-11-07T01:18:07.229Z,79.59
2022-11-07T01:19:07.255Z,79.38
2022-11-07T01:20:07.152Z,79.69
2022-11-07T01:21:10.887Z,80.00
2022-11-07T01:22:08.557Z,80.00
2022-11-07T01:23:07.134Z,79.90
2022-11-07T01:24:07.118Z,79.80
2022-11-07T01:25:07.121Z,80.00
2022-11-07T01:26:07.121Z,80.10
2022-11-07T01:27:07.103Z,80.21
2022-11-07T01:28:07.102Z,79.90
2022-11-07T01:29:07.086Z,80.10
2022-11-07T01:30:07.088Z,80.62
2022-11-07T01:31:07.079Z,80.41
2022-11-07T01:32:07.083Z,80.10
2022-11-07T01:33:07.104Z,80.00
2022-11-07T01:34:07.065Z,80.10
2022-11-07T01:35:07.286Z,79.69
2022-11-07T01:36:07.048Z,80.31
2022-11-07T01:37:07.039Z,79.80
2022-11-07T01:38:07.025Z,79.80
2022-11-07T01:39:07.022Z,79.86
2022-11-07T01:40:07.043Z,79.66
2022-11-07T01:41:06.992Z,79.86
2022-11-07T01:42:06.993Z,79.28
2022-11-07T01:43:06.988Z,79.66
2022-11-07T01:44:06.998Z,80.00
2022-11-07T01:45:07.011Z,80.10
2022-11-07T01:46:06.978Z,80.10
2022-11-07T01:47:08.408Z,80.00
2022-11-07T01:48:06.990Z,80.07
2022-11-07T01:49:06.945Z,80.21
2022-11-07T01:50:06.948Z,80.21
2022-11-07T01:51:06.929Z,79.96
2022-11-07T01:52:06.926Z,80.07
2022-11-07T01:53:06.929Z,80.00
2022-11-07T01:54:06.941Z,80.31
2022-11-07T01:55:06.899Z,80.41
2022-11-07T01:56:06.898Z,80.21
2022-11-07T01:57:07.153Z,80.10
2022-11-07T01:58:06.879Z,80.17
2022-11-07T01:59:06.870Z,80.00
2022-11-07T02:00:06.863Z,80.37
2022-11-07T02:01:06.853Z,79.66
2022-11-07T02:02:07.418Z,80.00
2022-11-07T02:03:06.858Z,80.07
2022-11-07T02:04:06.864Z,79.96
2022-11-07T02:05:06.815Z,80.37
2022-11-07T02:06:06.818Z,80.07
2022-11-07T02:07:06.809Z,80.37
2022-11-07T02:08:06.820Z,80.27
2022-11-07T02:09:06.788Z,79.96
2022-11-07T02:10:06.787Z,80.21
2022-11-07T02:11:06.788Z,80.27
2022-11-07T02:12:06.770Z,80.17
2022-11-07T02:13:06.764Z,79.96
2022-11-07T02:14:06.762Z,80.17
2022-11-07T02:15:06.784Z,80.58
2022-11-07T02:16:06.740Z,80.37
2022-11-07T02:17:06.721Z,81.09
2022-11-07T02:18:06.726Z,80.37
2022-11-07T02:19:07.165Z,80.27
2022-11-07T02:20:06.812Z,80.37
2022-11-07T02:21:06.706Z,80.47
2022-11-07T02:22:06.693Z,80.78
2022-11-07T02:23:06.687Z,80.37
2022-11-07T02:24:07.307Z,80.47
2022-11-07T02:25:06.685Z,80.68
2022-11-07T02:26:06.661Z,81.09
2022-11-07T02:27:06.654Z,80.58
2022-11-07T02:28:06.664Z,81.29
2022-11-07T02:29:06.661Z,80.68
2022-11-07T02:30:06.638Z,81.09
2022-11-07T02:31:06.632Z,80.78
2022-11-07T02:32:06.614Z,81.40
2022-11-07T02:33:06.609Z,80.88
2022-11-07T02:34:06.605Z,81.20
2022-11-07T02:35:06.597Z,81.29
2022-11-07T02:36:06.621Z,81.29
2022-11-07T02:37:06.576Z,81.09
2022-11-07T02:38:06.578Z,81.13
2022-11-07T02:39:06.748Z,81.60
2022-11-07T02:40:06.560Z,81.74
2022-11-07T02:41:06.583Z,81.85
2022-11-07T02:42:06.548Z,82.15
2022-11-07T02:43:06.548Z,82.26
2022-11-07T02:44:06.524Z,82.26
2022-11-07T02:45:06.523Z,82.26
2022-11-07T02:46:06.822Z,81.85
2022-11-07T02:47:06.505Z,82.05
2022-11-07T02:48:06.503Z,82.46
2022-11-07T02:49:06.487Z,82.15
2022-11-07T02:50:06.491Z,82.46
2022-11-07T02:51:06.478Z,82.15
2022-11-07T02:52:06.558Z,81.95
2022-11-07T02:53:06.463Z,82.36
2022-11-07T02:54:06.455Z,82.36
2022-11-07T02:55:06.445Z,82.77
2022-11-07T02:56:06.457Z,82.46
2022-11-07T02:57:06.459Z,82.77
2022-11-07T02:58:06.423Z,82.67
2022-11-07T02:59:06.418Z,82.67
2022-11-07T03:00:06.413Z,82.87
2022-11-07T03:01:06.410Z,82.97
2022-11-07T03:02:06.575Z,82.56
2022-11-07T03:03:06.384Z,83.39
2022-11-07T03:04:06.459Z,83.49
2022-11-07T03:05:06.385Z,83.53
2022-11-07T03:06:06.374Z,83.69
2022-11-07T03:07:06.374Z,83.53
2022-11-07T03:08:06.390Z,83.49
2022-11-07T03:09:06.350Z,84.00
2022-11-07T03:10:06.735Z,83.94
2022-11-07T03:11:06.332Z,84.04
2022-11-07T03:12:06.326Z,83.90
2022-11-07T03:13:06.322Z,83.90
2022-11-07T03:14:06.303Z,84.04
2022-11-07T03:15:06.914Z,84.04
2022-11-07T03:16:06.703Z,84.10
2022-11-07T03:17:06.295Z,83.90
2022-11-07T03:18:06.283Z,84.00
2022-11-07T03:19:06.286Z,84.20
2022-11-07T03:20:06.271Z,83.49
2022-11-07T03:21:06.294Z,84.10
2022-11-07T03:22:06.252Z,84.00
2022-11-07T03:23:06.248Z,84.00
2022-11-07T03:24:06.261Z,83.80
2022-11-07T03:25:06.240Z,84.00
2022-11-07T03:26:06.236Z,84.10
2022-11-07T03:27:06.230Z,83.49
2022-11-07T03:28:06.203Z,84.00
2022-11-07T03:29:06.238Z,84.31
2022-11-07T03:30:06.198Z,84.31
2022-11-07T03:31:06.187Z,84.10
2022-11-07T03:32:06.238Z,84.20
2022-11-07T03:33:06.182Z,84.41
2022-11-07T03:34:06.163Z,84.61
2022-11-07T03:35:06.165Z,84.20
2022-11-07T03:36:06.147Z,84.20
2022-11-07T03:37:06.148Z,84.41
2022-11-07T03:38:06.145Z,84.52
2022-11-07T03:39:06.135Z,84.92
2022-11-07T03:40:06.173Z,84.72
2022-11-07T03:41:06.124Z,85.13
2022-11-07T03:42:06.109Z,85.38
2022-11-07T03:43:06.113Z,85.17
2022-11-07T03:44:06.116Z,85.38
2022-11-07T03:45:06.079Z,85.38
2022-11-07T03:46:06.085Z,85.23
2022-11-07T03:47:06.116Z,85.03
2022-11-07T03:48:06.055Z,85.23
2022-11-07T03:49:06.059Z,84.61
2022-11-07T03:50:06.054Z,85.03
2022-11-07T03:51:06.074Z,84.61
2022-11-07T03:52:06.041Z,85.23
2022-11-07T03:53:06.032Z,84.92
2022-11-07T03:54:06.020Z,84.72
2022-11-07T03:55:06.016Z,84.92
2022-11-07T03:56:06.345Z,85.23
2022-11-07T03:57:06.009Z,84.68
2022-11-07T03:58:06.627Z,84.68
2022-11-07T03:59:05.999Z,84.82
2022-11-07T04:00:06.645Z,84.92
2022-11-07T04:01:05.971Z,84.61
2022-11-07T04:02:06.094Z,85.19
2022-11-07T04:03:05.951Z,84.88
2022-11-07T04:04:06.395Z,84.99
2022-11-07T04:05:05.931Z,85.09
2022-11-07T04:06:05.933Z,84.99
2022-11-07T04:07:05.927Z,85.30
2022-11-07T04:08:05.915Z,84.68
2022-11-07T04:09:05.919Z,84.78
2022-11-07T04:10:05.926Z,84.68
2022-11-07T04:11:05.904Z,84.78
2022-11-07T04:12:05.920Z,84.47
2022-11-07T04:13:05.877Z,84.84
2022-11-07T04:14:05.885Z,84.99
2022-11-07T04:15:05.885Z,84.84
2022-11-07T04:16:05.859Z,84.88
2022-11-07T04:17:05.880Z,84.95
2022-11-07T04:18:05.838Z,84.47
2022-11-07T04:19:05.834Z,85.30
2022-11-07T04:20:05.824Z,84.99
2022-11-07T04:21:05.832Z,85.19
2022-11-07T04:22:05.827Z,85.13
2022-11-07T04:23:05.800Z,85.23
2022-11-07T04:24:05.802Z,85.33
2022-11-07T04:25:05.791Z,85.54
2022-11-07T04:26:05.800Z,85.64
2022-11-07T04:27:05.775Z,85.60
2022-11-07T04:28:06.468Z,85.60
2022-11-07T04:29:05.788Z,85.23
2022-11-07T04:30:05.757Z,85.30
2022-11-07T04:31:05.738Z,85.54
2022-11-07T04:32:05.737Z,85.30
2022-11-07T04:33:05.731Z,85.44
2022-11-07T04:34:06.325Z,85.23
2022-11-07T04:35:05.713Z,85.44
2022-11-07T04:36:05.723Z,85.95
2022-11-07T04:37:05.918Z,85.44
2022-11-07T04:38:05.690Z,85.33
2022-11-07T04:39:05.698Z,85.33
2022-11-07T04:40:05.821Z,86.05
2022-11-07T04:41:05.675Z,85.64
2022-11-07T04:42:05.667Z,85.64
2022-11-07T04:43:05.655Z,85.95
2022-11-07T04:44:05.676Z,85.95
2022-11-07T04:45:05.785Z,86.25
2022-11-07T04:46:05.632Z,86.98
2022-11-07T04:47:05.630Z,86.32
2022-11-07T04:48:05.629Z,85.85
2022-11-07T04:49:05.613Z,85.60
2022-11-07T04:50:05.612Z,86.11
2022-11-07T04:51:06.150Z,86.46
2022-11-07T04:52:05.607Z,86.46
2022-11-07T04:53:05.590Z,86.11
2022-11-07T04:54:05.591Z,85.39
2022-11-07T04:55:05.564Z,85.60
2022-11-07T04:56:06.289Z,85.30
2022-11-07T04:57:05.552Z,85.25
2022-11-07T04:58:05.546Z,85.05
2022-11-07T04:59:05.535Z,85.50
2022-11-07T05:00:05.552Z,85.15
2022-11-07T05:01:05.548Z,85.46
2022-11-07T05:02:05.831Z,85.05
2022-11-07T05:03:05.569Z,85.05
2022-11-07T05:04:06.022Z,85.25
2022-11-07T05:05:05.495Z,85.15
2022-11-07T05:06:05.484Z,84.95
2022-11-07T05:07:05.509Z,85.36
2022-11-07T05:08:05.465Z,85.05
2022-11-07T05:09:05.550Z,85.11
2022-11-07T05:10:09.661Z,84.74
2022-11-07T05:11:06.441Z,84.95
2022-11-07T05:12:05.441Z,84.91
2022-11-07T05:13:05.950Z,85.36
2022-11-07T05:14:05.431Z,85.31
2022-11-07T05:15:05.419Z,84.74
2022-11-07T05:16:05.430Z,84.95
2022-11-07T05:17:05.557Z,84.74
2022-11-07T05:18:05.397Z,84.70
2022-11-07T05:19:05.383Z,85.36
2022-11-07T05:20:05.387Z,85.05
2022-11-07T05:21:05.376Z,85.15
2022-11-07T05:22:05.372Z,84.95
2022-11-07T05:23:05.783Z,85.15
2022-11-07T05:24:05.364Z,85.15
2022-11-07T05:25:05.424Z,85.46
2022-11-07T05:26:05.343Z,85.77
2022-11-07T05:27:05.337Z,85.46
2022-11-07T05:28:05.329Z,85.66
2022-11-07T05:29:06.606Z,85.46
2022-11-07T05:30:05.323Z,85.46
2022-11-07T05:31:05.321Z,85.30
2022-11-07T05:32:05.336Z,85.36
2022-11-07T05:33:08.618Z,86.69
2022-11-07T05:34:05.295Z,86.28
2022-11-07T05:35:05.287Z,86.01
2022-11-07T05:36:05.283Z,86.01
2022-11-07T05:37:05.266Z,86.01
2022-11-07T05:38:05.262Z,86.01
2022-11-07T05:39:05.730Z,86.38
2022-11-07T05:40:05.261Z,86.18
2022-11-07T05:41:05.253Z,85.97
2022-11-07T05:42:05.251Z,85.97
2022-11-07T05:43:05.225Z,86.22
2022-11-07T05:44:05.249Z,86.28
2022-11-07T05:45:05.213Z,86.18
2022-11-07T05:46:05.200Z,86.18
2022-11-07T05:47:05.203Z,86.28
2022-11-07T05:48:05.216Z,85.97
2022-11-07T05:49:10.481Z,86.07
2022-11-07T05:50:05.182Z,86.07
2022-11-07T05:51:05.171Z,86.18
2022-11-07T05:52:05.160Z,86.07
2022-11-07T05:53:05.194Z,86.28
2022-11-07T05:54:05.277Z,86.28
2022-11-07T05:55:05.161Z,86.18
2022-11-07T05:56:05.140Z,86.28
2022-11-07T05:57:05.120Z,86.07
2022-11-07T05:58:07.084Z,86.07
2022-11-07T05:59:05.133Z,86.07
2022-11-07T06:00:05.293Z,86.28
2022-11-07T06:01:05.101Z,86.07
2022-11-07T06:02:05.194Z,86.48
2022-11-07T06:03:05.211Z,86.48
2022-11-07T06:04:05.155Z,86.28
2022-11-07T06:05:05.065Z,86.28
2022-11-07T06:06:05.057Z,86.28
2022-11-07T06:07:05.561Z,86.90
2022-11-07T06:08:05.047Z,86.79
2022-11-07T06:09:05.045Z,86.79
2022-11-07T06:10:05.041Z,86.90
2022-11-07T06:11:12.533Z,87.61
2022-11-07T06:12:05.014Z,86.90
2022-11-07T06:13:05.930Z,86.90
2022-11-07T06:14:05.005Z,87.30
2022-11-07T06:15:04.995Z,87.51
2022-11-07T06:16:04.983Z,87.61
2022-11-07T06:17:04.981Z,87.61
2022-11-07T06:18:04.982Z,87.55
2022-11-07T06:19:05.997Z,87.04
2022-11-07T06:20:05.019Z,87.45
2022-11-07T06:21:04.952Z,87.76
2022-11-07T06:22:04.954Z,87.76
2022-11-07T06:23:04.943Z,87.76
2022-11-07T06:24:04.931Z,87.76
2022-11-07T06:25:04.941Z,87.76
2022-11-07T06:26:04.924Z,87.34
2022-11-07T06:27:04.911Z,87.55
2022-11-07T06:28:04.922Z,87.96
2022-11-07T06:29:04.902Z,87.30
2022-11-07T06:30:04.917Z,87.65
2022-11-07T06:31:04.881Z,88.17
2022-11-07T06:32:04.884Z,87.82
2022-11-07T06:33:04.923Z,87.76
2022-11-07T06:34:04.854Z,87.41
2022-11-07T06:35:06.153Z,87.85
2022-11-07T06:36:05.062Z,87.71
2022-11-07T06:37:04.831Z,87.55
2022-11-07T06:38:04.828Z,87.51
2022-11-07T06:39:04.818Z,87.61
2022-11-07T06:40:04.819Z,87.71
2022-11-07T06:41:04.828Z,87.51
2022-11-07T06:42:04.829Z,87.82
2022-11-07T06:43:04.781Z,87.51
2022-11-07T06:44:04.785Z,87.30
2022-11-07T06:45:04.771Z,87.20
2022-11-07T06:46:05.150Z,87.20
2022-11-07T06:47:04.793Z,87.51
2022-11-07T06:48:04.748Z,87.51
2022-11-07T06:49:04.754Z,87.57
2022-11-07T06:50:05.164Z,87.51
2022-11-07T06:51:04.731Z,87.37
2022-11-07T06:52:04.861Z,87.47
2022-11-07T06:53:04.720Z,87.47
2022-11-07T06:54:04.699Z,87.47
2022-11-07T06:55:04.693Z,87.26
2022-11-07T06:56:04.693Z,87.47
2022-11-07T06:57:04.680Z,87.57
2022-11-07T06:58:05.089Z,87.77
2022-11-07T06:59:04.671Z,87.88
2022-11-07T07:00:04.651Z,86.75
2022-11-07T07:01:04.716Z,86.91
2022-11-07T07:02:04.672Z,86.10
2022-11-07T07:03:04.804Z,86.61
2022-11-07T07:04:04.649Z,86.20
2022-11-07T07:05:05.093Z,86.51
2022-11-07T07:06:04.618Z,85.89
2022-11-07T07:07:04.617Z,86.10
2022-11-07T07:08:04.625Z,86.16
2022-11-07T07:09:04.600Z,85.89
2022-11-07T07:10:04.609Z,86.40
2022-11-07T07:11:04.591Z,86.10
2022-11-07T07:12:04.575Z,86.40
2022-11-07T07:13:04.593Z,85.99
2022-11-07T07:14:07.438Z,86.05
2022-11-07T07:15:05.554Z,86.26
2022-11-07T07:16:04.540Z,85.96
2022-11-07T07:17:04.543Z,86.26
2022-11-07T07:18:04.540Z,86.16
2022-11-07T07:19:04.963Z,86.26
2022-11-07T07:20:04.516Z,86.05
2022-11-07T07:21:04.504Z,86.36
2022-11-07T07:22:04.505Z,85.14
2022-11-07T07:23:25.617Z,85.34
2022-11-07T07:24:05.224Z,84.85
2022-11-07T07:25:04.473Z,84.65
2022-11-07T07:26:04.469Z,83.79
2022-11-07T07:27:04.461Z,82.87
2022-11-07T07:28:04.466Z,82.87
2022-11-07T07:29:04.585Z,82.01
2022-11-07T07:30:04.438Z,82.36
2022-11-07T07:31:04.440Z,82.36
2022-11-07T07:32:04.427Z,83.59
2022-11-07T07:33:04.418Z,83.62
2022-11-07T07:34:04.418Z,84.17
2022-11-07T07:35:05.042Z,84.24
2022-11-07T07:36:04.392Z,84.65
2022-11-07T07:37:04.392Z,84.38
2022-11-07T07:38:04.394Z,84.69
2022-11-07T07:39:04.489Z,84.79
2022-11-07T07:40:04.399Z,85.10
2022-11-07T07:41:04.383Z,84.99
2022-11-07T07:42:04.411Z,85.10
2022-11-07T07:43:04.345Z,84.69
2022-11-07T07:44:04.343Z,84.99
2022-11-07T07:45:04.348Z,84.79
2022-11-07T07:46:04.343Z,84.69
2022-11-07T07:47:09.905Z,84.48
2022-11-07T07:48:05.311Z,84.55
2022-11-07T07:49:04.313Z,84.24
2022-11-07T07:50:04.290Z,84.24
2022-11-07T07:51:05.011Z,84.14
2022-11-07T07:52:04.285Z,84.09
2022-11-07T07:53:08.900Z,83.89
2022-11-07T07:54:05.263Z,83.59
2022-11-07T07:55:04.378Z,82.42
2022-11-07T07:56:04.258Z,82.28
2022-11-07T07:57:04.240Z,81.67
2022-11-07T07:58:04.235Z,81.16
2022-11-07T07:59:04.229Z,80.82
2022-11-07T08:00:04.218Z,80.37
2022-11-07T08:01:04.298Z,80.16
2022-11-07T08:02:04.344Z,79.41
2022-11-07T08:03:04.196Z,78.50
2022-11-07T08:04:04.209Z,79.32
2022-11-07T08:05:04.185Z,78.91
2022-11-07T08:06:04.189Z,78.70
2022-11-07T08:07:04.232Z,79.14
2022-11-07T08:08:04.160Z,79.55
2022-11-07T08:09:04.166Z,79.35
2022-11-07T08:10:26.901Z,79.35
2022-11-07T08:11:05.891Z,78.80
2022-11-07T08:12:04.621Z,79.11
2022-11-07T08:13:04.129Z,79.14
2022-11-07T08:14:04.125Z,79.55
2022-11-07T08:15:04.120Z,79.90
2022-11-07T08:16:04.113Z,80.51
2022-11-07T08:17:04.105Z,80.41
2022-11-07T08:18:04.098Z,80.20
2022-11-07T08:19:04.092Z,80.27
2022-11-07T08:20:04.077Z,79.86
2022-11-07T08:21:04.083Z,80.41
2022-11-07T08:22:04.075Z,80.51
2022-11-07T08:23:04.057Z,80.91
2022-11-07T08:24:04.660Z,81.12
2022-11-07T08:25:04.039Z,80.71
2022-11-07T08:26:04.073Z,80.51
2022-11-07T08:27:04.148Z,80.82
2022-11-07T08:28:04.029Z,80.30
2022-11-07T08:29:04.009Z,80.71
2022-11-07T08:30:04.011Z,81.02
2022-11-07T08:31:04.005Z,80.37
2022-11-07T08:32:03.993Z,80.10
2022-11-07T08:33:04.435Z,79.45
2022-11-07T08:34:04.104Z,79.75
2022-11-07T08:35:03.972Z,79.66
2022-11-07T08:36:03.969Z,79.75
2022-11-07T08:37:03.953Z,79.45
2022-11-07T08:38:03.955Z,79.62
2022-11-07T08:39:03.951Z,79.75
2022-11-07T08:40:03.933Z,79.00
2022-11-07T08:41:03.933Z,79.55
2022-11-07T08:42:03.932Z,79.25
2022-11-07T08:43:03.938Z,79.55
2022-11-07T08:44:03.916Z,79.25
2022-11-07T08:45:03.907Z,79.11
2022-11-07T08:46:03.909Z,78.91
2022-11-07T08:47:08.307Z,78.70
2022-11-07T08:48:03.900Z,78.60
2022-11-07T08:49:03.877Z,78.46
2022-11-07T08:50:03.887Z,78.91
2022-11-07T08:51:03.999Z,78.91
2022-11-07T08:52:03.870Z,79.52
2022-11-07T08:53:03.851Z,78.70
2022-11-07T08:54:03.840Z,79.00
2022-11-07T08:55:03.833Z,79.11
2022-11-07T08:56:03.845Z,79.52
2022-11-07T08:57:04.290Z,79.04
2022-11-07T08:58:03.818Z,79.55
2022-11-07T08:59:03.833Z,79.72
2022-11-07T09:00:03.798Z,79.32
2022-11-07T09:01:03.933Z,79.62
2022-11-07T09:02:47.324Z,79.25
2022-11-07T09:04:04.870Z,79.41
2022-11-07T09:05:03.769Z,79.52
2022-11-07T09:06:03.880Z,79.11
2022-11-07T09:07:03.749Z,79.21
2022-11-07T09:08:03.754Z,79.62
2022-11-07T09:09:03.962Z,79.11
2022-11-07T09:10:03.735Z,79.32
2022-11-07T09:11:03.763Z,79.00
2022-11-07T09:12:03.721Z,78.91
2022-11-07T09:13:03.705Z,78.97
2022-11-07T09:14:03.701Z,79.17
2022-11-07T09:15:03.764Z,78.36
2022-11-07T09:16:03.785Z,78.66
2022-11-07T09:17:03.692Z,78.77
2022-11-07T09:18:03.685Z,78.16
2022-11-07T09:19:03.671Z,78.56
2022-11-07T09:20:03.666Z,78.56
2022-11-07T09:21:03.705Z,78.46
2022-11-07T09:22:03.644Z,78.36
2022-11-07T09:23:03.641Z,78.66
2022-11-07T09:24:04.250Z,78.46
2022-11-07T09:25:03.627Z,79.27
2022-11-07T09:26:04.040Z,78.46
2022-11-07T09:27:03.610Z,78.77
2022-11-07T09:28:03.611Z,78.97
2022-11-07T09:29:03.590Z,79.48
2022-11-07T09:30:03.586Z,78.97
2022-11-07T09:31:03.617Z,79.07
2022-11-07T09:32:23.366Z,78.77
2022-11-07T09:33:04.569Z,79.48
2022-11-07T09:34:03.560Z,79.03
2022-11-07T09:35:05.184Z,78.36
2022-11-07T09:36:03.546Z,78.77
2022-11-07T09:37:04.430Z,78.66
2022-11-07T09:38:03.568Z,78.46
2022-11-07T09:39:03.538Z,78.46
2022-11-07T09:40:03.525Z,78.97
2022-11-07T09:41:03.514Z,78.87
2022-11-07T09:42:03.507Z,78.56
2022-11-07T09:43:03.512Z,78.97
2022-11-07T09:44:04.987Z,78.87
2022-11-07T09:45:03.495Z,78.97
2022-11-07T09:46:03.502Z,79.17
2022-11-07T09:47:03.498Z,79.07
2022-11-07T09:48:03.539Z,79.27
2022-11-07T09:49:03.468Z,78.87
2022-11-07T09:50:03.462Z,79.17
2022-11-07T09:51:03.449Z,78.97
2022-11-07T09:52:04.259Z,79.17
2022-11-07T09:53:03.432Z,78.56
2022-11-07T09:54:03.452Z,78.87
2022-11-07T09:55:03.426Z,78.97
2022-11-07T09:56:03.409Z,78.26
2022-11-07T09:57:03.435Z,78.97
2022-11-07T09:58:04.034Z,79.17
2022-11-07T09:59:03.385Z,78.87
2022-11-07T10:00:04.762Z,79.07
2022-11-07T10:01:03.474Z,78.46
2022-11-07T10:02:03.400Z,79.27
2022-11-07T10:03:03.404Z,78.63
2022-11-07T10:04:24.266Z,78.42
2022-11-07T10:05:04.344Z,78.53
2022-11-07T10:06:03.339Z,78.42
2022-11-07T10:07:03.359Z,78.32
2022-11-07T10:08:03.319Z,78.32
2022-11-07T10:09:03.326Z,78.42
2022-11-07T10:10:03.322Z,78.53
2022-11-07T10:11:03.323Z,77.61
2022-11-07T10:12:03.302Z,77.71
2022-11-07T10:13:03.304Z,77.71
2022-11-07T10:14:03.291Z,78.42
2022-11-07T10:15:03.284Z,77.37
2022-11-07T10:16:03.265Z,77.87
2022-11-07T10:17:03.309Z,77.67
2022-11-07T10:18:03.261Z,77.67
2022-11-07T10:19:03.286Z,77.26
2022-11-07T10:20:03.249Z,77.06
2022-11-07T10:21:30.971Z,76.92
2022-11-07T10:22:04.584Z,76.31
2022-11-07T10:23:03.234Z,77.17
2022-11-07T10:24:03.216Z,76.92
2022-11-07T10:25:03.243Z,76.52
2022-11-07T10:26:03.205Z,76.42
2022-11-07T10:27:03.280Z,76.89
2022-11-07T10:28:03.190Z,76.68
2022-11-07T10:29:03.203Z,76.48
2022-11-07T10:30:03.259Z,76.38
2022-11-07T10:31:03.178Z,75.98
2022-11-07T10:32:03.158Z,75.67
2022-11-07T10:33:03.178Z,76.11
2022-11-07T10:34:03.149Z,76.42
2022-11-07T10:35:03.160Z,76.52
2022-11-07T10:36:03.129Z,76.11
2022-11-07T10:37:03.127Z,76.21
2022-11-07T10:38:03.120Z,76.86
2022-11-07T10:39:03.102Z,76.92
2022-11-07T10:40:08.305Z,76.82
2022-11-07T10:41:04.089Z,76.31
2022-11-07T10:42:03.110Z,76.42
2022-11-07T10:43:03.110Z,77.23
2022-11-07T10:44:03.071Z,76.89
2022-11-07T10:45:03.087Z,76.21
2022-11-07T10:46:03.089Z,76.42
2022-11-07T10:47:03.053Z,76.76
2022-11-07T10:48:03.078Z,76.82
2022-11-07T10:49:03.035Z,77.23
2022-11-07T10:50:03.034Z,76.52
2022-11-07T10:51:03.049Z,76.92
2022-11-07T10:52:03.017Z,76.52
2022-11-07T10:53:03.005Z,76.89
2022-11-07T10:54:03.001Z,76.68
2022-11-07T10:55:03.001Z,76.48
2022-11-07T10:56:02.987Z,75.98
2022-11-07T10:57:02.981Z,76.38
2022-11-07T10:58:02.972Z,76.07
2022-11-07T10:59:02.959Z,76.79
2022-11-07T11:00:03.492Z,76.59
2022-11-07T11:01:03.072Z,76.38
2022-11-07T11:02:03.033Z,76.01
2022-11-07T11:03:02.936Z,76.38
2022-11-07T11:04:02.925Z,76.21
2022-11-07T11:05:02.916Z,76.42
2022-11-07T11:06:03.375Z,76.21
2022-11-07T11:07:03.025Z,76.31
2022-11-07T11:08:02.906Z,76.28
2022-11-07T11:09:02.890Z,76.89
2022-11-07T11:10:02.876Z,76.52
2022-11-07T11:11:02.870Z,76.31
2022-11-07T11:12:02.872Z,76.68
2022-11-07T11:13:02.854Z,76.28
2022-11-07T11:14:03.928Z,77.13
2022-11-07T11:15:02.849Z,76.59
2022-11-07T11:16:05.866Z,76.89
2022-11-07T11:17:02.901Z,76.21
2022-11-07T11:18:02.820Z,77.33
2022-11-07T11:19:04.155Z,77.33
2022-11-07T11:20:02.806Z,76.59
2022-11-07T11:21:02.791Z,76.38
2022-11-07T11:22:07.252Z,75.98
2022-11-07T11:23:03.803Z,76.68
2022-11-07T11:24:02.785Z,75.87
2022-11-07T11:25:02.796Z,76.18
2022-11-07T11:26:02.764Z,75.67
2022-11-07T11:27:02.752Z,76.48
2022-11-07T11:28:02.742Z,76.42
2022-11-07T11:29:02.765Z,76.07
2022-11-07T11:30:02.738Z,76.21
2022-11-07T11:31:03.321Z,76.31
2022-11-07T11:32:02.716Z,76.68
2022-11-07T11:33:02.709Z,76.21
2022-11-07T11:34:02.701Z,76.82
2022-11-07T11:35:02.685Z,77.09
2022-11-07T11:36:02.688Z,76.52
2022-11-07T11:37:02.712Z,76.72
2022-11-07T11:38:02.663Z,76.62
2022-11-07T11:39:02.707Z,76.42
2022-11-07T11:40:02.740Z,76.92
2022-11-07T11:41:09.325Z,76.92
2022-11-07T11:42:04.313Z,77.13
2022-11-07T11:43:02.639Z,76.82
2022-11-07T11:44:02.648Z,76.82
2022-11-07T11:45:03.065Z,76.28
2022-11-07T11:46:02.623Z,76.38
2022-11-07T11:47:02.628Z,76.48
2022-11-07T11:48:02.608Z,75.94
2022-11-07T11:49:02.599Z,75.77
2022-11-07T11:50:03.698Z,75.77
2022-11-07T11:51:02.583Z,75.94
2022-11-07T11:52:02.565Z,75.23
2022-11-07T11:53:02.596Z,75.43
2022-11-07T11:54:02.567Z,74.58
2022-11-07T11:55:02.569Z,74.68
2022-11-07T11:56:02.536Z,74.58
2022-11-07T11:57:02.553Z,74.52
2022-11-07T11:58:02.985Z,74.72
2022-11-07T11:59:02.535Z,74.72
2022-11-07T12:00:02.512Z,74.82
2022-11-07T12:01:02.514Z,75.33
2022-11-07T12:02:03.020Z,75.12
2022-11-07T12:03:02.526Z,75.84
2022-11-07T12:04:05.483Z,75.73
2022-11-07T12:05:03.958Z,75.57
2022-11-07T12:06:02.484Z,75.33
2022-11-07T12:07:02.455Z,75.23
2022-11-07T12:08:02.458Z,75.33
2022-11-07T12:09:02.437Z,74.92
2022-11-07T12:10:02.499Z,75.23
2022-11-07T12:11:02.456Z,74.99
2022-11-07T12:12:09.493Z,74.68
2022-11-07T12:13:02.405Z,74.92
2022-11-07T12:14:02.413Z,75.23
2022-11-07T12:15:02.401Z,75.06
2022-11-07T12:16:02.390Z,75.33
2022-11-07T12:17:02.388Z,74.92
2022-11-07T12:18:02.370Z,75.33
2022-11-07T12:19:02.643Z,75.53
2022-11-07T12:20:02.476Z,75.43
2022-11-07T12:21:02.387Z,75.84
2022-11-07T12:22:02.369Z,76.04
2022-11-07T12:23:02.348Z,76.25
2022-11-07T12:24:02.770Z,75.12
2022-11-07T12:25:02.400Z,75.33
2022-11-07T12:26:02.354Z,75.43
2022-11-07T12:27:02.394Z,75.23
2022-11-07T12:28:03.149Z,74.99
2022-11-07T12:29:02.302Z,75.23
2022-11-07T12:30:02.324Z,75.23
2022-11-07T12:31:02.286Z,74.88
2022-11-07T12:32:02.310Z,75.23
2022-11-07T12:33:02.269Z,75.43
2022-11-07T12:34:02.270Z,75.23
2022-11-07T12:35:03.433Z,75.23
2022-11-07T12:36:02.243Z,75.23
2022-11-07T12:37:02.248Z,75.53
2022-11-07T12:38:02.244Z,75.63
2022-11-07T12:39:02.229Z,75.53
2022-11-07T12:40:02.515Z,75.84
2022-11-07T12:41:02.520Z,76.04
2022-11-07T12:42:02.202Z,75.70
2022-11-07T12:43:02.261Z,75.73
2022-11-07T12:44:02.268Z,75.94
2022-11-07T12:45:02.199Z,76.25
2022-11-07T12:46:02.215Z,76.75
2022-11-07T12:47:02.174Z,76.45
2022-11-07T12:48:02.239Z,75.63
2022-11-07T12:49:02.209Z,75.84
2022-11-07T12:50:02.820Z,75.98
2022-11-07T12:51:02.148Z,76.48
2022-11-07T12:52:02.179Z,76.45
2022-11-07T12:53:02.157Z,77.20